Terminal Aerodrome Forecast
Issued by NWS

Home | Current Version | Previous Version | Text Only | Print | Product List | Glossary On
Versions: 1 2 3 4 5 6 7 8 9 10 11 12 13 14 15 16 17 18 19 20 21 22 23 24 25 26 27 28 29 30 31
000
FTUS44 KHGX 242341
TAFLBX
TAF
KLBX 242341Z 2500/2524 19014KT P6SM VCSH BKN015 OVC025
     FM250300 21007KT P6SM VCSH OVC015
     FM250500 25005KT 6SM -SHRA BR OVC008
     FM251200 04006KT 6SM -SHRA BR OVC004
     FM251500 06008KT 5SM -SHRA BR OVC008
     FM252300 09005KT 5SM BR VCSH OVC008=

USA.gov is the U.S. government's official web portal to all federal, state and local government web resources and services.